createdAt,value
2022-08-19T00:03:12.473Z,11.40
2022-08-19T00:05:39.691Z,10.68
2022-08-19T00:12:50.760Z,11.52
2022-08-19T00:15:20.320Z,11.02
2022-08-19T00:17:47.376Z,11.80
2022-08-19T00:21:10.832Z,11.65
2022-08-19T00:31:08.070Z,11.85
2022-08-19T00:33:35.805Z,11.45
2022-08-19T00:36:07.172Z,12.32
2022-08-19T00:38:37.835Z,11.93
2022-08-19T00:41:06.940Z,12.23
2022-08-19T00:43:34.610Z,12.23
2022-08-19T00:46:05.774Z,12.48
2022-08-19T00:48:34.712Z,11.60
2022-08-19T00:56:04.793Z,11.68
2022-08-19T00:58:34.438Z,12.20
2022-08-19T01:01:02.081Z,12.57
2022-08-19T01:04:25.268Z,11.82
2022-08-19T01:06:52.169Z,11.45
2022-08-19T01:10:15.712Z,12.45
2022-08-19T01:12:42.692Z,11.77
2022-08-19T01:19:07.947Z,11.88
2022-08-19T01:21:47.283Z,11.35
2022-08-19T01:25:14.941Z,11.90
2022-08-19T01:27:44.862Z,11.60
2022-08-19T01:30:23.490Z,11.60
2022-08-19T01:37:45.981Z,12.35
2022-08-19T01:40:13.502Z,11.68
2022-08-19T01:42:41.585Z,11.45
2022-08-19T01:49:14.040Z,11.60
2022-08-19T01:51:41.128Z,11.48
2022-08-19T01:54:09.629Z,11.95
2022-08-19T01:57:33.247Z,11.27
2022-08-19T02:00:01.173Z,10.93
2022-08-19T02:02:28.019Z,12.25
2022-08-19T02:05:51.360Z,12.02
2022-08-19T02:08:18.239Z,11.25
2022-08-19T02:10:45.406Z,11.73
2022-08-19T02:14:08.512Z,12.07
2022-08-19T02:16:36.829Z,11.77
2022-08-19T02:20:00.415Z,11.75
2022-08-19T02:22:27.381Z,11.73
2022-08-19T02:24:55.234Z,11.63
2022-08-19T02:28:19.231Z,11.23
2022-08-19T02:30:47.538Z,11.05
2022-08-19T02:33:14.895Z,10.60
2022-08-19T02:36:42.302Z,10.90
2022-08-19T02:39:10.446Z,10.32
2022-08-19T02:41:37.754Z,10.48
2022-08-19T02:44:28.883Z,10.30
2022-08-19T02:46:52.665Z,10.90
2022-08-19T02:54:23.600Z,9.73
2022-08-19T02:56:50.799Z,10.25
2022-08-19T02:59:17.650Z,10.30
2022-08-19T03:02:46.390Z,9.30
2022-08-19T03:05:13.971Z,9.40
2022-08-19T03:07:40.790Z,8.75
2022-08-19T03:11:04.087Z,10.40
2022-08-19T03:13:31.219Z,9.15
2022-08-19T03:16:54.765Z,9.88
2022-08-19T03:19:22.475Z,9.60
2022-08-19T03:25:45.736Z,9.02
2022-08-19T03:28:13.820Z,9.57
2022-08-19T03:31:43.632Z,9.73
2022-08-19T03:34:18.712Z,9.90
2022-08-19T03:36:47.163Z,9.65
2022-08-19T03:43:32.052Z,8.90
2022-08-19T03:46:08.973Z,9.13
2022-08-19T03:53:37.440Z,9.75
2022-08-19T03:56:04.676Z,9.73
2022-08-19T03:58:31.783Z,8.82
2022-08-19T04:01:55.626Z,9.48
2022-08-19T04:04:24.669Z,9.45
2022-08-19T04:06:52.402Z,9.27
2022-08-19T04:10:15.941Z,9.82
2022-08-19T04:12:42.859Z,10.38
2022-08-19T04:15:10.206Z,10.27
2022-08-19T04:18:36.337Z,9.05
2022-08-19T04:21:03.952Z,9.55
2022-08-19T04:24:27.094Z,9.60
2022-08-19T04:26:54.120Z,9.77
2022-08-19T04:29:26.014Z,9.15
2022-08-19T04:32:50.010Z,9.73
2022-08-19T04:35:19.399Z,10.00
2022-08-19T04:37:48.966Z,10.10
2022-08-19T04:41:12.621Z,10.48
2022-08-19T04:43:40.246Z,9.68
2022-08-19T04:46:09.912Z,9.55
2022-08-19T04:49:33.379Z,10.27
2022-08-19T04:52:00.327Z,9.25
2022-08-19T04:54:37.506Z,9.50
2022-08-19T04:58:02.567Z,9.57
2022-08-19T05:00:29.560Z,9.52
2022-08-19T05:02:56.406Z,9.48
2022-08-19T05:06:19.696Z,9.57
2022-08-19T05:08:46.868Z,9.38
2022-08-19T05:12:10.768Z,9.32
2022-08-19T05:14:37.567Z,8.85
2022-08-19T05:17:26.157Z,8.52
2022-08-19T05:21:05.999Z,9.25
2022-08-19T05:23:32.872Z,9.20
2022-08-19T05:25:59.603Z,9.60
2022-08-19T05:29:22.931Z,9.88
2022-08-19T05:31:50.402Z,9.90
2022-08-19T05:34:20.542Z,9.68
2022-08-19T05:37:43.632Z,9.05
2022-08-19T05:40:11.391Z,8.75
2022-08-19T05:42:38.717Z,9.13
2022-08-19T05:50:09.239Z,9.70
2022-08-19T05:52:39.356Z,9.55
2022-08-19T06:00:09.419Z,9.48
2022-08-19T06:02:36.693Z,8.82
2022-08-19T06:05:10.099Z,9.18
2022-08-19T06:12:40.056Z,8.10
2022-08-19T06:15:14.371Z,9.02
2022-08-19T06:17:42.923Z,9.30
2022-08-19T06:27:14.751Z,9.85
2022-08-19T06:29:41.838Z,10.60
2022-08-19T06:33:05.606Z,9.77
2022-08-19T06:35:32.602Z,9.15
2022-08-19T06:38:00.362Z,10.15
2022-08-19T06:41:23.946Z,9.38
2022-08-19T06:43:52.548Z,8.88
2022-08-19T06:46:21.641Z,9.82
2022-08-19T06:49:45.197Z,9.45
2022-08-19T06:52:16.970Z,8.68
2022-08-19T06:54:56.007Z,8.25
2022-08-19T06:58:20.218Z,8.43
2022-08-19T07:00:46.967Z,9.05
2022-08-19T07:03:13.953Z,8.63
2022-08-19T07:06:43.168Z,8.93
2022-08-19T07:09:14.633Z,8.45
2022-08-19T07:12:42.137Z,7.47
2022-08-19T07:15:10.875Z,7.28
2022-08-19T07:18:16.354Z,7.63
2022-08-19T07:20:44.050Z,7.88
2022-08-19T07:23:16.160Z,7.30
2022-08-19T07:26:40.090Z,7.20
2022-08-19T07:29:10.485Z,6.78
2022-08-19T07:31:38.452Z,6.13
2022-08-19T07:35:02.217Z,6.43
2022-08-19T07:37:33.183Z,6.63
2022-08-19T07:44:27.310Z,6.25
2022-08-19T07:46:57.044Z,5.90
2022-08-19T07:54:20.359Z,5.10
2022-08-19T07:56:47.470Z,6.25
2022-08-19T07:59:14.491Z,6.00
2022-08-19T08:01:41.980Z,5.65
2022-08-19T08:04:28.094Z,6.50
2022-08-19T08:07:51.432Z,7.63
2022-08-19T08:10:21.179Z,7.45
2022-08-19T08:20:19.777Z,5.88
2022-08-19T08:27:43.701Z,7.43
2022-08-19T08:30:17.263Z,8.23
2022-08-19T08:32:45.817Z,6.85
2022-08-19T08:40:13.181Z,9.20
2022-08-19T08:42:48.340Z,10.48
2022-08-19T08:45:18.892Z,10.45
2022-08-19T08:47:50.973Z,9.48
2022-08-19T08:50:36.653Z,8.05
2022-08-19T08:53:06.520Z,9.63
2022-08-19T08:55:36.848Z,9.43
2022-08-19T08:58:28.763Z,8.10
2022-08-19T09:00:55.750Z,8.80
2022-08-19T09:03:31.413Z,8.10
2022-08-19T09:08:48.506Z,7.63
2022-08-19T09:11:44.768Z,7.82
2022-08-19T09:14:52.325Z,7.90
2022-08-19T09:17:29.244Z,8.82
2022-08-19T09:20:09.780Z,6.57
2022-08-19T09:22:38.691Z,6.40
2022-08-19T09:26:02.256Z,6.05
2022-08-19T09:28:30.274Z,6.72
2022-08-19T09:30:59.308Z,6.40
2022-08-19T09:33:26.205Z,5.97
2022-08-19T09:36:08.675Z,6.22
2022-08-19T09:38:37.352Z,6.47
2022-08-19T09:41:20.071Z,6.90
2022-08-19T09:43:53.122Z,7.53
2022-08-19T09:46:22.096Z,7.90
2022-08-19T09:48:52.298Z,8.60
2022-08-19T09:51:22.522Z,10.02
2022-08-19T09:53:51.830Z,9.93
2022-08-19T09:56:21.345Z,8.38
2022-08-19T09:58:48.802Z,8.00
2022-08-19T10:01:24.359Z,7.40
2022-08-19T10:03:55.124Z,8.00
2022-08-19T10:06:38.166Z,6.90
2022-08-19T10:09:12.015Z,6.25
2022-08-19T10:11:49.876Z,6.80
2022-08-19T10:14:23.586Z,6.57
2022-08-19T10:16:51.650Z,6.38
2022-08-19T10:19:25.558Z,6.22
2022-08-19T10:21:55.724Z,6.97
2022-08-19T10:24:28.648Z,6.40
2022-08-19T10:26:58.830Z,6.28
2022-08-19T10:29:32.492Z,6.15
2022-08-19T10:32:05.614Z,5.78
2022-08-19T10:34:38.502Z,4.97
2022-08-19T10:37:28.933Z,5.22
2022-08-19T10:39:58.727Z,5.57
2022-08-19T10:42:25.828Z,4.85
2022-08-19T10:44:52.870Z,4.95
2022-08-19T10:47:25.649Z,4.90
2022-08-19T10:50:13.744Z,4.63
2022-08-19T10:52:49.220Z,4.65
2022-08-19T10:55:58.298Z,4.38
2022-08-19T10:58:27.034Z,4.40
2022-08-19T11:00:56.411Z,4.63
2022-08-19T11:03:24.901Z,4.53
2022-08-19T11:06:03.150Z,4.72
2022-08-19T11:08:31.786Z,4.30
2022-08-19T11:11:01.978Z,5.00
2022-08-19T11:13:30.219Z,4.30
2022-08-19T11:16:06.540Z,4.53
2022-08-19T11:18:38.770Z,4.28
2022-08-19T11:21:12.046Z,4.57
2022-08-19T11:23:39.244Z,4.63
2022-08-19T11:27:02.339Z,4.70
2022-08-19T11:29:30.145Z,4.50
2022-08-19T11:31:56.993Z,4.30
2022-08-19T11:34:28.551Z,4.40
2022-08-19T11:36:59.519Z,4.50
2022-08-19T11:39:28.585Z,4.20
2022-08-19T11:41:55.953Z,4.20
2022-08-19T11:44:23.071Z,4.30
2022-08-19T11:46:49.975Z,4.35
2022-08-19T11:49:19.718Z,4.25
2022-08-19T11:51:47.139Z,4.75
2022-08-19T11:54:17.320Z,4.35
2022-08-19T11:56:47.477Z,4.60
2022-08-19T11:59:15.004Z,4.82
2022-08-19T12:01:43.680Z,5.13
2022-08-19T12:04:11.835Z,4.80
2022-08-19T12:06:41.328Z,5.10
2022-08-19T12:09:10.443Z,5.00
2022-08-19T12:11:39.268Z,4.78
2022-08-19T12:14:07.545Z,4.85
2022-08-19T12:16:36.210Z,5.00
2022-08-19T12:19:08.807Z,4.80
2022-08-19T12:21:36.818Z,5.13
2022-08-19T12:24:05.736Z,4.82
2022-08-19T12:27:40.054Z,5.20
2022-08-19T12:30:10.864Z,4.15
2022-08-19T12:32:38.370Z,4.43
2022-08-19T12:35:07.342Z,4.88
2022-08-19T12:37:34.502Z,5.10
2022-08-19T12:40:01.889Z,4.55
2022-08-19T12:42:28.791Z,4.88
2022-08-19T12:44:55.849Z,4.68
2022-08-19T12:47:23.425Z,4.60
2022-08-19T12:49:53.238Z,5.10
2022-08-19T12:52:28.212Z,4.68
2022-08-19T12:54:57.042Z,4.90
2022-08-19T12:57:32.520Z,4.57
2022-08-19T13:00:05.037Z,4.13
2022-08-19T13:02:38.520Z,10.63
2022-08-19T13:05:09.365Z,5.10
2022-08-19T13:07:38.138Z,4.03
2022-08-19T13:10:06.704Z,4.35
2022-08-19T13:12:33.562Z,3.60
2022-08-19T13:15:00.384Z,3.92
2022-08-19T13:17:28.079Z,4.00
2022-08-19T13:19:55.047Z,4.05
2022-08-19T13:22:22.072Z,5.07
2022-08-19T13:24:49.595Z,4.22
2022-08-19T13:28:13.264Z,4.10
2022-08-19T13:31:06.054Z,4.30
2022-08-19T13:33:34.663Z,4.50
2022-08-19T13:36:02.680Z,3.40
2022-08-19T13:38:31.439Z,3.85
2022-08-19T13:41:10.971Z,4.13
2022-08-19T13:43:39.059Z,3.00
2022-08-19T13:46:11.318Z,3.40
2022-08-19T13:48:38.170Z,3.30
2022-08-19T13:51:06.285Z,3.75
2022-08-19T13:53:33.632Z,3.20
2022-08-19T13:56:00.486Z,3.45
2022-08-19T13:58:27.304Z,3.10
2022-08-19T14:00:54.225Z,2.83
2022-08-19T14:03:21.192Z,2.75
2022-08-19T14:05:48.154Z,2.72
2022-08-19T14:08:15.142Z,2.40
2022-08-19T14:10:43.660Z,2.22
2022-08-19T14:13:10.892Z,2.47
2022-08-19T14:15:39.042Z,2.85
2022-08-19T14:18:05.900Z,3.13
2022-08-19T14:20:35.936Z,2.80
2022-08-19T14:23:04.240Z,3.28
2022-08-19T14:25:32.188Z,3.10
2022-08-19T14:27:59.977Z,3.10
2022-08-19T14:30:33.370Z,3.42
2022-08-19T14:33:01.887Z,2.88
2022-08-19T14:36:25.238Z,3.10
2022-08-19T14:38:52.136Z,3.15
2022-08-19T14:41:24.270Z,3.03
2022-08-19T14:43:53.142Z,3.10
2022-08-19T14:46:22.429Z,3.35
2022-08-19T14:48:50.749Z,3.42
2022-08-19T14:51:21.580Z,3.65
2022-08-19T14:53:51.693Z,3.55
2022-08-19T14:56:22.393Z,3.47
2022-08-19T14:58:52.618Z,3.70
2022-08-19T15:01:21.586Z,3.30
2022-08-19T15:03:50.179Z,3.60
2022-08-19T15:06:17.197Z,3.40
2022-08-19T15:08:45.770Z,3.42
2022-08-19T15:11:16.710Z,3.35
2022-08-19T15:13:45.417Z,3.50
2022-08-19T15:16:17.909Z,3.35
2022-08-19T15:18:46.832Z,3.33
2022-08-19T15:21:17.475Z,3.17
2022-08-19T15:23:54.770Z,3.53
2022-08-19T15:26:22.268Z,3.50
2022-08-19T15:28:49.269Z,3.50
2022-08-19T15:31:25.296Z,3.50
2022-08-19T15:33:58.945Z,3.40
2022-08-19T15:37:22.405Z,3.47
2022-08-19T15:39:49.211Z,3.60
2022-08-19T15:42:16.642Z,3.55
2022-08-19T15:45:01.512Z,3.40
2022-08-19T15:47:34.634Z,3.60
2022-08-19T15:50:23.748Z,3.65
2022-08-19T15:52:54.017Z,3.70
2022-08-19T15:55:33.426Z,3.67
2022-08-19T15:58:29.939Z,3.67
2022-08-19T16:01:26.859Z,3.78
2022-08-19T16:04:16.105Z,3.85
2022-08-19T16:06:48.833Z,3.85
2022-08-19T16:09:17.062Z,4.13
2022-08-19T16:11:46.368Z,4.03
2022-08-19T16:14:18.613Z,4.03
2022-08-19T16:16:47.625Z,4.57
2022-08-19T16:19:16.963Z,4.85
2022-08-19T16:21:46.223Z,4.10
2022-08-19T16:24:16.019Z,4.22
2022-08-19T16:26:44.301Z,4.30
2022-08-19T16:29:13.035Z,4.18
2022-08-19T16:31:41.981Z,3.88
2022-08-19T16:34:08.891Z,4.20
2022-08-19T16:36:36.083Z,4.20
2022-08-19T16:44:00.892Z,3.90
2022-08-19T16:46:27.841Z,4.22
2022-08-19T16:48:54.843Z,4.88
2022-08-19T16:51:23.010Z,4.00
2022-08-19T16:53:52.616Z,3.92
2022-08-19T16:56:20.459Z,4.07
2022-08-19T16:58:48.669Z,4.00
2022-08-19T17:01:15.532Z,4.25
2022-08-19T17:03:42.412Z,4.00
2022-08-19T17:06:19.012Z,3.85
2022-08-19T17:08:49.869Z,4.13
2022-08-19T17:11:19.139Z,4.13
2022-08-19T17:13:47.775Z,3.80
2022-08-19T17:16:25.116Z,4.13
2022-08-19T17:18:54.549Z,3.63
2022-08-19T17:21:29.124Z,4.07
2022-08-19T17:23:57.151Z,4.10
2022-08-19T17:26:25.712Z,4.32
2022-08-19T17:28:55.579Z,3.85
2022-08-19T17:31:28.841Z,4.35
2022-08-19T17:34:03.965Z,3.90
2022-08-19T17:36:34.222Z,4.32
2022-08-19T17:39:58.243Z,4.20
2022-08-19T17:42:36.090Z,4.22
2022-08-19T17:45:07.673Z,4.35
2022-08-19T17:47:36.531Z,4.20
2022-08-19T17:50:07.098Z,4.40
2022-08-19T17:52:34.515Z,4.10
2022-08-19T17:55:02.015Z,4.00
2022-08-19T17:57:28.805Z,4.35
2022-08-19T17:59:55.757Z,4.30
2022-08-19T18:02:24.837Z,4.68
2022-08-19T18:04:52.203Z,4.25
2022-08-19T18:07:22.178Z,4.57
2022-08-19T18:09:52.116Z,4.38
2022-08-19T18:12:24.723Z,4.20
2022-08-19T18:14:51.627Z,4.60
2022-08-19T18:17:19.438Z,4.65
2022-08-19T18:19:47.824Z,4.88
2022-08-19T18:22:27.093Z,4.25
2022-08-19T18:24:55.271Z,4.78
2022-08-19T18:27:22.389Z,4.80
2022-08-19T18:29:49.459Z,4.85
2022-08-19T18:32:23.101Z,4.78
2022-08-19T18:34:51.754Z,5.15
2022-08-19T18:37:19.125Z,5.20
2022-08-19T18:44:43.102Z,4.95
2022-08-19T18:47:28.488Z,5.18
2022-08-19T18:49:55.456Z,5.10
2022-08-19T18:52:26.954Z,5.35
2022-08-19T18:54:53.981Z,5.32
2022-08-19T18:57:24.808Z,5.03
2022-08-19T18:59:56.631Z,4.78
2022-08-19T19:02:24.349Z,4.97
2022-08-19T19:04:51.443Z,4.80
2022-08-19T19:07:18.630Z,5.22
2022-08-19T19:09:50.488Z,4.97
2022-08-19T19:12:18.206Z,5.55
2022-08-19T19:14:49.507Z,5.80
2022-08-19T19:17:17.569Z,5.03
2022-08-19T19:19:44.504Z,5.70
2022-08-19T19:22:14.449Z,5.63
2022-08-19T19:24:45.212Z,5.70
2022-08-19T19:27:13.913Z,5.18
2022-08-19T19:29:41.996Z,5.38
2022-08-19T19:32:19.486Z,6.00
2022-08-19T19:34:46.771Z,6.25
2022-08-19T19:37:14.045Z,5.72
2022-08-19T19:40:37.574Z,5.15
2022-08-19T19:43:06.214Z,5.85
2022-08-19T19:45:33.519Z,5.32
2022-08-19T19:48:00.853Z,5.28
2022-08-19T19:50:31.182Z,5.53
2022-08-19T19:52:58.630Z,5.20
2022-08-19T19:55:26.859Z,5.18
2022-08-19T19:57:54.553Z,4.85
2022-08-19T20:00:22.314Z,5.47
2022-08-19T20:02:50.814Z,4.95
2022-08-19T20:05:20.776Z,5.63
2022-08-19T20:08:06.334Z,4.43
2022-08-19T20:10:33.599Z,4.88
2022-08-19T20:13:02.836Z,4.85
2022-08-19T20:15:32.112Z,4.90
2022-08-19T20:18:00.355Z,5.10
2022-08-19T20:20:28.007Z,5.07
2022-08-19T20:22:55.270Z,4.63
2022-08-19T20:25:22.497Z,5.03
2022-08-19T20:27:49.974Z,4.35
2022-08-19T20:30:20.613Z,4.70
2022-08-19T20:32:48.981Z,4.85
2022-08-19T20:35:18.919Z,4.68
2022-08-19T20:37:46.241Z,4.22
2022-08-19T20:45:32.396Z,4.18
2022-08-19T20:47:56.845Z,3.80
2022-08-19T20:50:23.818Z,3.95
2022-08-19T20:52:52.487Z,4.00
2022-08-19T20:55:22.088Z,3.63
2022-08-19T20:57:49.053Z,3.70
2022-08-19T21:00:16.666Z,3.85
2022-08-19T21:02:43.664Z,3.28
2022-08-19T21:05:11.243Z,3.40
2022-08-19T21:07:39.554Z,3.38
2022-08-19T21:10:07.175Z,3.45
2022-08-19T21:12:34.156Z,3.55
2022-08-19T21:15:01.902Z,3.28
2022-08-19T21:17:28.819Z,3.30
2022-08-19T21:19:55.683Z,3.15
2022-08-19T21:22:22.614Z,3.00
2022-08-19T21:24:49.600Z,3.38
2022-08-19T21:27:16.411Z,2.90
2022-08-19T21:29:43.327Z,3.13
2022-08-19T21:32:14.292Z,2.75
2022-08-19T21:34:46.111Z,2.50
2022-08-19T21:37:19.938Z,2.38
2022-08-19T21:40:48.599Z,2.38
2022-08-19T21:43:16.287Z,2.42
2022-08-19T21:45:43.698Z,2.40
2022-08-19T21:48:12.583Z,2.63
2022-08-19T21:50:39.403Z,2.40
2022-08-19T21:53:06.444Z,2.45
2022-08-19T21:55:33.583Z,2.17
2022-08-19T21:58:01.721Z,2.40
2022-08-19T22:00:32.230Z,2.30
2022-08-19T22:02:59.254Z,2.35
2022-08-19T22:05:26.216Z,2.20
2022-08-19T22:07:58.067Z,2.20
2022-08-19T22:10:32.433Z,1.90
2022-08-19T22:12:59.665Z,2.33
2022-08-19T22:15:29.147Z,1.95
2022-08-19T22:17:58.481Z,1.95
2022-08-19T22:20:28.172Z,1.90
2022-08-19T22:22:58.451Z,2.20
2022-08-19T22:25:31.976Z,2.00
2022-08-19T22:28:01.599Z,1.98
2022-08-19T22:30:33.268Z,2.08
2022-08-19T22:33:02.749Z,1.90
2022-08-19T22:35:32.932Z,2.13
2022-08-19T22:38:00.493Z,1.90
2022-08-19T22:41:24.179Z,1.92
2022-08-19T22:43:51.141Z,1.70
2022-08-19T22:46:17.958Z,1.77
2022-08-19T22:48:46.142Z,2.15
2022-08-19T22:51:32.432Z,1.85
2022-08-19T22:53:59.795Z,1.50
2022-08-19T22:56:26.881Z,2.10
2022-08-19T22:58:54.064Z,1.85
2022-08-19T23:01:23.819Z,1.92
2022-08-19T23:03:56.436Z,1.90
2022-08-19T23:06:23.245Z,1.95
2022-08-19T23:08:56.678Z,1.90
2022-08-19T23:11:23.650Z,1.98
2022-08-19T23:13:50.507Z,2.00
2022-08-19T23:16:17.517Z,1.70
2022-08-19T23:18:45.526Z,1.80
2022-08-19T23:21:12.347Z,1.70
2022-08-19T23:23:39.348Z,1.73
2022-08-19T23:26:06.590Z,1.70
2022-08-19T23:28:57.109Z,2.00
2022-08-19T23:31:26.538Z,2.00
2022-08-19T23:33:53.437Z,1.60
2022-08-19T23:36:21.576Z,2.25
2022-08-19T23:38:50.768Z,1.60
2022-08-19T23:49:37.989Z,1.95
2022-08-19T23:52:05.100Z,1.75
2022-08-19T23:54:42.889Z,2.25
2022-08-19T23:57:13.259Z,4.22
2022-08-19T23:59:42.454Z,2.30
